Time;durP1;ratioP1;P1;durP2;ratioP2;P2;SDS_P1;SDS_P2;PMS_P1;PMS_P2;Temp;Humidity;BMP_temperature;BMP_pressure;BME280_temperature;BME280_humidity;BME280_pressure;Samples;Min_cycle;Max_cycle;Signal;HPM_P1;HPM_P2
2023/05/20 00:00:57;;;;;;;10.95;3.50;;;;;;;14.19;69.49;102280.91;5074684;28;20474;-65
2023/05/20 00:03:25;;;;;;;14.40;3.83;;;;;;;14.17;69.98;102289.41;5057175;28;20404;-66
2023/05/20 00:05:52;;;;;;;13.98;3.38;;;;;;;14.14;69.89;102289.91;5055355;28;20067;-66
2023/05/20 00:08:20;;;;;;;12.18;3.72;;;;;;;14.18;69.74;102282.00;5065705;28;20064;-66
2023/05/20 00:10:48;;;;;;;14.02;3.97;;;;;;;14.24;69.62;102284.53;5067343;28;20386;-66
2023/05/20 00:13:15;;;;;;;7.65;3.20;;;;;;;14.25;69.51;102288.09;5050719;28;20069;-66
2023/05/20 00:15:43;;;;;;;10.85;3.65;;;;;;;14.20;69.44;102280.66;5049200;28;20045;-66
2023/05/20 00:18:11;;;;;;;11.65;3.60;;;;;;;14.12;69.95;102278.38;5068477;28;20059;-68
2023/05/20 00:20:39;;;;;;;7.65;3.10;;;;;;;14.07;70.40;102279.16;5075693;28;20090;-66
2023/05/20 00:23:06;;;;;;;10.43;3.50;;;;;;;14.14;70.18;102273.47;5066644;28;20037;-66
2023/05/20 00:25:34;;;;;;;8.95;3.40;;;;;;;14.12;70.17;102278.38;5053662;28;20049;-65
2023/05/20 00:28:02;;;;;;;9.25;3.10;;;;;;;14.07;70.65;102281.88;5056273;28;20496;-66
2023/05/20 00:30:30;;;;;;;8.43;3.35;;;;;;;14.10;70.46;102287.94;5054656;28;20057;-66
2023/05/20 00:32:58;;;;;;;9.18;3.30;;;;;;;13.95;71.32;102278.44;5054663;28;20125;-65
2023/05/20 00:35:25;;;;;;;14.57;3.67;;;;;;;13.96;71.63;102282.84;5053415;28;20045;-66
2023/05/20 00:37:53;;;;;;;8.98;3.60;;;;;;;13.95;71.47;102285.81;5051146;28;20128;-67
2023/05/20 00:40:22;;;;;;;10.00;3.60;;;;;;;13.91;71.95;102277.28;5075067;28;20102;-66
2023/05/20 00:42:50;;;;;;;10.98;3.33;;;;;;;13.91;71.81;102279.22;5072694;28;20401;-67
2023/05/20 00:45:17;;;;;;;12.73;3.45;;;;;;;13.84;72.01;102274.72;5058657;28;20140;-65
2023/05/20 00:47:45;;;;;;;10.02;3.70;;;;;;;13.79;72.77;102274.66;5056175;28;20049;-67
2023/05/20 00:50:13;;;;;;;10.63;3.53;;;;;;;13.83;72.36;102273.09;5055561;28;20474;-67
2023/05/20 00:52:43;;;;;;;9.15;3.40;;;;;;;13.78;72.95;102269.44;5053174;28;20120;-67
2023/05/20 00:55:11;;;;;;;7.60;3.47;;;;;;;13.81;72.85;102263.47;5052700;28;20129;-67
2023/05/20 00:57:39;;;;;;;8.95;3.30;;;;;;;13.72;72.92;102270.47;5057356;28;20135;-67
2023/05/20 01:00:09;;;;;;;14.00;4.07;;;;;;;13.74;73.63;102273.78;5037776;28;20486;-67
2023/05/20 01:02:37;;;;;;;9.85;3.35;;;;;;;13.72;73.67;102273.22;5021112;28;20131;-66
2023/05/20 01:05:05;;;;;;;14.77;3.53;;;;;;;13.70;73.53;102267.97;5052629;28;20490;-67
2023/05/20 01:07:33;;;;;;;10.77;3.72;;;;;;;13.73;73.54;102263.91;5062453;28;20435;-66
2023/05/20 01:10:01;;;;;;;11.45;3.40;;;;;;;13.72;73.50;102263.06;5073605;28;20105;-67
2023/05/20 01:12:37;;;;;;;9.95;3.70;;;;;;;13.77;73.55;102265.06;5060800;28;20401;-67
2023/05/20 01:15:08;;;;;;;9.30;3.67;;;;;;;13.77;73.60;102263.13;5053718;28;20080;-67
2023/05/20 01:17:43;;;;;;;6.60;2.95;;;;;;;13.75;73.64;102268.03;5052543;28;20049;-67
2023/05/20 01:20:14;;;;;;;9.40;3.67;;;;;;;13.63;74.84;102268.16;5054628;28;20124;-66
2023/05/20 01:22:51;;;;;;;10.27;3.28;;;;;;;13.55;74.75;102268.59;5052723;28;20052;-66
2023/05/20 01:25:19;;;;;;;11.18;3.50;;;;;;;13.49;75.78;102261.38;5036965;28;20080;-65
2023/05/20 01:27:48;;;;;;;7.70;3.20;;;;;;;13.52;75.33;102260.91;5052998;28;20049;-66
2023/05/20 01:30:16;;;;;;;9.38;3.70;;;;;;;13.54;75.61;102256.00;5053243;28;20049;-66
2023/05/20 01:33:07;;;;;;;9.02;3.30;;;;;;;13.60;75.25;102257.72;5052621;28;20412;-67
2023/05/20 01:35:35;;;;;;;9.38;3.55;;;;;;;13.55;75.37;102249.44;5053812;28;20044;-66
2023/05/20 01:38:05;;;;;;;13.15;3.72;;;;;;;13.52;75.91;102254.59;5026406;28;20048;-66
2023/05/20 01:40:33;;;;;;;8.82;3.38;;;;;;;13.60;75.89;102252.22;5048558;28;20045;-66
2023/05/20 01:43:02;;;;;;;10.52;3.90;;;;;;;13.53;75.89;102243.38;5036864;28;20053;-67
2023/05/20 01:45:30;;;;;;;9.25;3.47;;;;;;;13.43;76.39;102244.06;5053435;28;20082;-66
2023/05/20 01:48:01;;;;;;;9.80;3.75;;;;;;;13.38;77.29;102238.50;5052152;28;20084;-66
2023/05/20 01:50:28;;;;;;;12.10;4.22;;;;;;;13.42;77.07;102250.63;5037075;28;20481;-65
2023/05/20 01:52:56;;;;;;;9.27;3.28;;;;;;;13.42;77.21;102241.56;5053730;28;20052;-66
2023/05/20 01:55:24;;;;;;;6.40;3.00;;;;;;;13.39;77.02;102251.09;5053430;28;20059;-67
2023/05/20 01:57:52;;;;;;;12.52;3.42;;;;;;;13.35;77.48;102243.69;5036108;28;20095;-67
2023/05/20 02:00:20;;;;;;;9.10;3.50;;;;;;;13.29;78.31;102241.94;5037675;28;20049;-66
2023/05/20 02:02:48;;;;;;;8.98;3.58;;;;;;;13.35;78.26;102238.22;5054370;28;20045;-61
2023/05/20 02:05:16;;;;;;;9.95;3.85;;;;;;;13.24;78.82;102230.88;5080457;28;20024;-62
2023/05/20 02:07:44;;;;;;;8.38;3.58;;;;;;;13.21;78.95;102233.03;5071833;28;20053;-64
2023/05/20 02:10:13;;;;;;;12.23;3.63;;;;;;;13.17;79.57;102242.81;5049447;28;20092;-65
2023/05/20 02:12:41;;;;;;;8.98;3.58;;;;;;;13.13;79.60;102238.94;5019198;28;20055;-65
2023/05/20 02:15:09;;;;;;;7.18;3.33;;;;;;;13.12;80.50;102240.00;5033885;28;20065;-59
2023/05/20 02:17:37;;;;;;;13.93;4.00;;;;;;;13.09;80.76;102235.03;5078571;28;20052;-65
2023/05/20 02:20:06;;;;;;;7.32;3.40;;;;;;;13.11;80.68;102232.88;5053039;28;20077;-65
2023/05/20 02:22:34;;;;;;;11.50;3.70;;;;;;;13.18;80.39;102236.28;5018229;28;20038;-65
2023/05/20 02:25:03;;;;;;;9.00;3.20;;;;;;;13.25;79.63;102233.34;5032528;28;20085;-66
2023/05/20 02:27:31;;;;;;;10.57;3.80;;;;;;;13.22;79.78;102228.38;5034343;28;20501;-67
2023/05/20 02:29:59;;;;;;;9.98;3.95;;;;;;;13.12;80.78;102242.75;5043211;28;20045;-67
2023/05/20 02:32:28;;;;;;;12.25;4.45;;;;;;;13.12;81.17;102233.72;5053085;28;20041;-66
2023/05/20 02:34:56;;;;;;;13.27;3.78;;;;;;;13.11;80.86;102235.63;5054562;28;20555;-67
2023/05/20 02:37:23;;;;;;;6.88;3.03;;;;;;;13.08;81.23;102235.28;5056948;28;20456;-66
2023/05/20 02:39:51;;;;;;;11.48;4.05;;;;;;;13.13;81.27;102229.88;5053842;28;20370;-66
2023/05/20 02:42:19;;;;;;;10.90;3.42;;;;;;;13.16;81.44;102226.66;5020766;28;20065;-65
2023/05/20 02:44:47;;;;;;;11.38;3.80;;;;;;;13.14;81.74;102232.38;5026945;28;20461;-66
2023/05/20 02:47:15;;;;;;;10.40;3.60;;;;;;;13.13;81.27;102228.00;5044892;28;20456;-66
2023/05/20 02:49:42;;;;;;;9.40;3.53;;;;;;;13.15;81.17;102233.22;5043435;28;20551;-66
2023/05/20 02:52:10;;;;;;;10.02;3.63;;;;;;;13.08;81.81;102225.16;5043723;28;20052;-66
2023/05/20 02:54:38;;;;;;;11.73;4.05;;;;;;;13.01;82.09;102227.25;5064750;28;20040;-66
2023/05/20 02:57:06;;;;;;;11.57;4.30;;;;;;;12.92;82.80;102226.84;5045429;28;20104;-66
2023/05/20 02:59:34;;;;;;;9.55;3.90;;;;;;;12.93;82.76;102224.94;5027422;28;20053;-66
2023/05/20 03:02:02;;;;;;;9.77;3.75;;;;;;;12.90;83.69;102225.44;5045484;28;20041;-66
2023/05/20 03:04:30;;;;;;;9.35;3.70;;;;;;;12.88;83.20;102227.59;5059542;28;20545;-66
2023/05/20 03:06:58;;;;;;;10.35;3.85;;;;;;;12.87;84.13;102229.50;5062686;28;20033;-66
2023/05/20 03:09:26;;;;;;;13.63;3.90;;;;;;;12.87;83.99;102225.91;5062745;28;20052;-66
2023/05/20 03:11:54;;;;;;;10.57;3.90;;;;;;;12.81;84.75;102227.75;5062724;28;20067;-67
2023/05/20 03:14:21;;;;;;;11.75;3.85;;;;;;;12.75;84.78;102217.81;5067942;28;20057;-67
2023/05/20 03:16:49;;;;;;;12.20;3.85;;;;;;;12.86;84.22;102222.38;5071063;28;20041;-66
2023/05/20 03:19:19;;;;;;;7.90;3.50;;;;;;;12.90;83.63;102214.50;5026583;28;20063;-67
2023/05/20 03:21:49;;;;;;;10.00;4.05;;;;;;;12.86;84.04;102219.63;5059418;28;20049;-65
2023/05/20 03:24:17;;;;;;;11.20;4.18;;;;;;;12.84;84.44;102215.47;5055638;28;20045;-66
2023/05/20 03:26:46;;;;;;;11.63;4.10;;;;;;;12.83;84.35;102224.78;5046885;28;20049;-65
2023/05/20 03:29:15;;;;;;;10.38;4.03;;;;;;;12.82;84.51;102223.09;5060091;28;20037;-65
2023/05/20 03:31:42;;;;;;;10.77;4.10;;;;;;;12.77;85.50;102230.16;5043071;28;20049;-66
2023/05/20 03:34:10;;;;;;;13.00;4.40;;;;;;;12.70;85.89;102232.25;5064193;28;20075;-66
2023/05/20 03:36:38;;;;;;;8.48;3.55;;;;;;;12.64;86.70;102235.94;5049614;28;20116;-66
2023/05/20 03:39:06;;;;;;;11.18;4.35;;;;;;;12.63;86.54;102231.56;5042207;28;20045;-66
2023/05/20 03:41:34;;;;;;;9.75;3.85;;;;;;;12.57;86.57;102235.28;5044062;28;20044;-65
2023/05/20 03:44:02;;;;;;;7.97;3.50;;;;;;;12.56;87.01;102230.91;5063285;28;20044;-67
2023/05/20 03:46:31;;;;;;;11.60;3.70;;;;;;;12.55;87.05;102229.22;5038770;28;20243;-66
2023/05/20 03:49:00;;;;;;;14.23;4.30;;;;;;;12.54;86.93;102238.50;5054940;28;20098;-66
2023/05/20 03:51:28;;;;;;;11.45;3.65;;;;;;;12.51;87.91;102228.06;5035583;28;20056;-66
2023/05/20 03:54:02;;;;;;;9.95;4.32;;;;;;;12.44;88.23;102227.41;5065667;28;20049;-66
2023/05/20 03:56:30;;;;;;;9.52;4.00;;;;;;;12.47;88.34;102221.44;5024459;28;20049;-65
2023/05/20 03:58:58;;;;;;;12.80;4.03;;;;;;;12.53;87.78;102228.63;5019682;28;20049;-66
2023/05/20 04:01:26;;;;;;;11.75;4.10;;;;;;;12.51;88.53;102223.44;5035930;28;20577;-67
2023/05/20 04:03:54;;;;;;;10.52;3.85;;;;;;;12.55;88.02;102223.75;5048082;28;20056;-66
2023/05/20 04:06:22;;;;;;;10.35;4.30;;;;;;;12.58;87.56;102223.28;5066666;28;20057;-67
2023/05/20 04:08:51;;;;;;;11.38;3.92;;;;;;;12.55;88.38;102224.59;5047548;28;20068;-66
2023/05/20 04:11:21;;;;;;;14.63;3.70;;;;;;;12.52;88.60;102224.25;5047224;28;20041;-67
2023/05/20 04:13:48;;;;;;;9.07;3.58;;;;;;;12.52;88.64;102218.78;5081706;28;20044;-67
2023/05/20 04:16:16;;;;;;;9.57;3.80;;;;;;;12.47;89.09;102211.31;5063425;28;20041;-66
2023/05/20 04:18:44;;;;;;;11.55;4.32;;;;;;;12.43;89.17;102225.72;5063501;28;20112;-66
2023/05/20 04:21:13;;;;;;;11.82;3.90;;;;;;;12.43;89.42;102225.72;5047392;28;20531;-64
2023/05/20 04:23:42;;;;;;;9.23;3.67;;;;;;;12.36;90.05;102224.00;5060091;28;20049;-65
2023/05/20 04:26:09;;;;;;;10.18;3.95;;;;;;;12.41;90.10;102225.13;5058125;28;20045;-67
2023/05/20 04:28:37;;;;;;;7.72;3.58;;;;;;;12.43;90.83;102223.00;5043777;28;20084;-67
2023/05/20 04:31:05;;;;;;;9.23;3.70;;;;;;;12.40;90.26;102226.22;5057073;28;20055;-66
2023/05/20 04:33:38;;;;;;;11.65;3.97;;;;;;;12.47;90.43;102227.72;5053923;28;20041;-67
2023/05/20 04:36:08;;;;;;;8.45;3.85;;;;;;;12.51;89.98;102226.16;5032941;28;20049;-66
2023/05/20 04:38:37;;;;;;;8.48;3.67;;;;;;;12.48;89.29;102225.81;5017637;28;20122;-66
2023/05/20 04:41:06;;;;;;;10.32;4.03;;;;;;;12.51;90.44;102225.34;5017913;28;20049;-66
2023/05/20 04:43:34;;;;;;;9.43;4.03;;;;;;;12.60;89.35;102232.03;5053111;28;20049;-66
2023/05/20 04:46:04;;;;;;;12.20;3.83;;;;;;;12.56;89.25;102230.91;5071341;28;20064;-66
2023/05/20 04:48:33;;;;;;;13.48;4.07;;;;;;;12.51;89.91;102230.81;5018240;28;20046;-65
2023/05/20 04:51:01;;;;;;;9.75;3.80;;;;;;;12.49;90.31;102233.78;5034486;28;20042;-67
2023/05/20 04:53:32;;;;;;;12.73;4.50;;;;;;;12.52;89.93;102225.06;5032927;28;20041;-66
2023/05/20 04:56:02;;;;;;;9.98;4.30;;;;;;;12.49;90.86;102230.22;5041486;28;20051;-65
2023/05/20 04:58:30;;;;;;;9.60;3.67;;;;;;;12.47;90.67;102224.16;5035481;28;20046;-66
2023/05/20 05:01:00;;;;;;;14.00;4.47;;;;;;;12.55;90.60;102229.22;5027911;28;20067;-66
2023/05/20 05:03:28;;;;;;;10.05;3.88;;;;;;;12.55;90.88;102229.22;5052996;28;20041;-65
2023/05/20 05:05:57;;;;;;;9.68;3.85;;;;;;;12.54;91.68;102228.41;5054139;28;20049;-65
2023/05/20 05:08:26;;;;;;;9.30;3.83;;;;;;;12.56;91.13;102220.78;5041696;28;20057;-66
2023/05/20 05:10:54;;;;;;;8.18;3.38;;;;;;;12.62;90.62;102227.16;5033398;28;20109;-65
2023/05/20 05:13:22;;;;;;;10.00;3.83;;;;;;;12.58;90.65;102220.53;5033498;28;20107;-66
2023/05/20 05:16:08;;;;;;;10.23;3.85;;;;;;;12.62;90.32;102224.41;5034361;28;20045;-66
2023/05/20 05:18:36;;;;;;;7.10;3.30;;;;;;;12.63;91.13;102215.16;5022184;28;20056;-66
2023/05/20 05:21:05;;;;;;;9.32;3.40;;;;;;;12.63;90.77;102217.91;5033264;28;20110;-65
2023/05/20 05:23:34;;;;;;;11.43;4.30;;;;;;;12.66;91.11;102214.66;5036180;28;20480;-66
2023/05/20 05:26:04;;;;;;;10.52;4.05;;;;;;;12.63;90.83;102212.44;5070502;28;20095;-66
2023/05/20 05:28:32;;;;;;;8.63;4.22;;;;;;;12.59;91.23;102211.25;5035639;28;20057;-65
2023/05/20 05:31:01;;;;;;;9.35;4.10;;;;;;;12.64;91.15;102213.25;5020700;28;20133;-66
2023/05/20 05:33:29;;;;;;;10.77;4.45;;;;;;;12.71;91.04;102217.47;5055105;28;20037;-66
2023/05/20 05:35:57;;;;;;;11.98;4.90;;;;;;;12.76;90.37;102214.81;5042345;28;20064;-66
2023/05/20 05:38:26;;;;;;;10.55;3.97;;;;;;;12.79;90.60;102217.09;5052504;28;20188;-66
2023/05/20 05:40:53;;;;;;;11.98;5.03;;;;;;;12.71;90.98;102214.75;5013691;28;20045;-66
2023/05/20 05:43:22;;;;;;;8.52;4.05;;;;;;;12.74;91.35;102221.63;5043808;28;20071;-66
2023/05/20 05:45:51;;;;;;;10.00;4.03;;;;;;;12.84;90.70;102220.94;4353944;28;10000724;-67
2023/05/20 05:48:18;;;;;;;12.07;4.30;;;;;;;12.89;90.73;102212.81;5044249;28;20041;-67
2023/05/20 05:50:47;;;;;;;13.70;4.70;;;;;;;12.92;90.36;102217.81;5032445;28;20037;-67
2023/05/20 05:53:17;;;;;;;13.57;4.65;;;;;;;12.92;90.63;102221.38;5048672;28;20702;-67
2023/05/20 05:55:47;;;;;;;12.05;4.28;;;;;;;12.94;90.85;102208.28;5049621;28;20049;-67
2023/05/20 05:58:16;;;;;;;11.35;4.38;;;;;;;13.00;90.79;102203.72;5048573;28;20078;-68
2023/05/20 06:00:45;;;;;;;11.43;4.75;;;;;;;13.05;89.91;102195.56;5032311;28;20052;-66
2023/05/20 06:03:12;;;;;;;13.23;4.32;;;;;;;13.13;89.07;102199.78;5048825;28;20047;-67
2023/05/20 06:05:43;;;;;;;9.85;4.32;;;;;;;13.18;88.93;102208.91;5049222;28;20055;-67
2023/05/20 06:08:12;;;;;;;9.68;4.10;;;;;;;13.25;88.34;102211.44;5017330;28;20061;-67
2023/05/20 06:10:39;;;;;;;11.60;4.53;;;;;;;13.32;87.91;102208.56;5040975;28;20048;-59
2023/05/20 06:13:07;;;;;;;10.35;3.88;;;;;;;13.36;86.72;102207.00;5052214;28;20049;-60
2023/05/20 06:15:35;;;;;;;8.45;3.80;;;;;;;13.32;86.51;102201.19;5042475;28;20049;-67
2023/05/20 06:18:03;;;;;;;10.10;4.60;;;;;;;13.37;86.84;102209.50;5040591;28;20045;-67
2023/05/20 06:20:32;;;;;;;13.40;3.85;;;;;;;13.45;86.10;102208.22;5070168;28;20068;-63
2023/05/20 06:23:00;;;;;;;11.30;4.28;;;;;;;13.47;85.96;102206.06;5061832;28;20041;-66
2023/05/20 06:25:37;;;;;;;7.07;3.72;;;;;;;13.52;86.18;102199.81;5043052;28;20128;-67
2023/05/20 06:28:07;;;;;;;9.55;3.90;;;;;;;13.54;85.55;102187.53;5039332;28;20056;-67
2023/05/20 06:30:35;;;;;;;8.57;4.07;;;;;;;13.58;86.34;102191.41;5054961;28;20040;-65
2023/05/20 06:33:03;;;;;;;11.45;4.22;;;;;;;13.66;85.45;102183.81;5031995;28;20044;-66
2023/05/20 06:35:33;;;;;;;12.85;4.15;;;;;;;13.70;85.18;102190.47;5057736;28;20072;-66
2023/05/20 06:38:02;;;;;;;9.50;3.85;;;;;;;13.74;83.21;102181.47;5043675;28;20485;-67
2023/05/20 06:40:30;;;;;;;9.95;3.85;;;;;;;13.76;82.11;102173.84;5056304;28;20540;-66
2023/05/20 06:42:58;;;;;;;8.55;3.80;;;;;;;13.81;82.70;102181.28;5046742;28;20036;-66
2023/05/20 06:45:46;;;;;;;6.82;3.67;;;;;;;13.87;82.26;102174.75;5057212;28;20049;-67
2023/05/20 06:48:23;;;;;;;5.88;3.85;;;;;;;13.91;81.29;102175.91;5057718;28;20076;-66
2023/05/20 06:50:51;;;;;;;9.13;4.30;;;;;;;13.97;82.18;102168.56;5023847;28;20051;-66
2023/05/20 06:53:19;;;;;;;11.00;3.83;;;;;;;14.02;81.88;102169.47;5052329;28;20037;-67
2023/05/20 06:55:46;;;;;;;8.20;4.03;;;;;;;14.05;79.99;102168.94;5019699;28;20045;-66
2023/05/20 06:58:14;;;;;;;19.08;6.38;;;;;;;14.10;81.88;102175.56;5041551;28;20072;-68
2023/05/20 07:00:43;;;;;;;8.20;4.18;;;;;;;14.15;80.63;102161.91;5056853;28;20052;-66
2023/05/20 07:03:11;;;;;;;8.30;3.83;;;;;;;14.18;79.45;102161.38;5040211;28;20099;-66
2023/05/20 07:05:39;;;;;;;11.10;3.88;;;;;;;14.19;80.59;102165.75;5023832;28;20124;-67
2023/05/20 07:08:09;;;;;;;9.55;3.92;;;;;;;14.26;79.25;102163.66;5035715;28;20049;-68
2023/05/20 07:10:37;;;;;;;7.18;4.10;;;;;;;14.30;79.69;102162.03;5052870;28;20056;-67
2023/05/20 07:13:04;;;;;;;8.15;4.40;;;;;;;14.33;79.57;102164.25;5055306;28;20037;-66
2023/05/20 07:15:32;;;;;;;12.13;4.20;;;;;;;14.44;79.12;102159.69;5055124;28;20053;-66
2023/05/20 07:18:00;;;;;;;8.30;4.05;;;;;;;14.48;79.04;102158.94;5056120;28;20060;-66
2023/05/20 07:20:29;;;;;;;7.32;3.90;;;;;;;14.49;79.10;102160.56;5037503;28;20053;-66
2023/05/20 07:23:02;;;;;;;7.40;4.00;;;;;;;14.58;78.50;102162.88;5035741;28;20088;-67
2023/05/20 07:25:37;;;;;;;9.35;3.80;;;;;;;14.66;77.22;102159.63;5036890;28;20061;-67
2023/05/20 07:28:04;;;;;;;7.75;4.00;;;;;;;14.69;77.58;102161.84;5026009;28;20515;-67
2023/05/20 07:30:32;;;;;;;8.05;3.78;;;;;;;14.70;76.58;102149.78;5041042;28;20049;-67
2023/05/20 07:33:19;;;;;;;9.00;3.85;;;;;;;14.71;76.28;102148.69;5060895;28;20041;-67
2023/05/20 07:35:47;;;;;;;8.90;4.10;;;;;;;14.77;76.71;102150.41;5058893;28;20098;-66
2023/05/20 07:38:15;;;;;;;8.43;3.90;;;;;;;14.78;75.43;102151.22;5074927;28;20045;-67
2023/05/20 07:40:45;;;;;;;8.30;3.67;;;;;;;14.84;74.65;102151.00;5063894;28;20404;-66
2023/05/20 07:43:14;;;;;;;9.80;4.13;;;;;;;14.91;74.41;102146.09;5054968;28;20045;-66
2023/05/20 07:45:42;;;;;;;10.18;4.50;;;;;;;14.95;74.09;102140.06;5038722;28;20442;-66
2023/05/20 07:48:11;;;;;;;9.05;3.80;;;;;;;14.98;74.25;102139.53;5022438;28;20119;-66
2023/05/20 07:50:39;;;;;;;7.70;3.97;;;;;;;15.02;75.38;102140.66;5069828;28;20033;-66
2023/05/20 07:53:08;;;;;;;7.88;4.40;;;;;;;15.14;72.53;102141.28;5054982;28;20052;-65
2023/05/20 07:55:36;;;;;;;12.15;4.13;;;;;;;15.13;72.01;102137.72;5054664;28;20057;-66
2023/05/20 07:58:05;;;;;;;10.63;4.15;;;;;;;15.12;72.67;102141.53;5054306;28;20049;-66
2023/05/20 08:00:34;;;;;;;9.85;4.32;;;;;;;15.17;70.89;102138.00;5054937;28;20102;-66
2023/05/20 08:03:06;;;;;;;8.85;3.80;;;;;;;15.17;70.89;102129.75;5041058;28;20038;-66
2023/05/20 08:05:53;;;;;;;11.93;4.30;;;;;;;15.21;70.53;102124.56;5041201;28;20053;-66
2023/05/20 08:08:21;;;;;;;9.77;4.15;;;;;;;15.24;70.81;102137.75;5034923;28;20057;-66
2023/05/20 08:10:56;;;;;;;6.53;3.78;;;;;;;15.24;71.04;102126.78;5063189;28;20044;-66
2023/05/20 08:13:25;;;;;;;8.63;3.97;;;;;;;15.25;71.03;102121.03;5055546;28;20051;-66
2023/05/20 08:15:54;;;;;;;9.43;4.28;;;;;;;15.32;69.86;102118.88;5055213;28;20083;-65
2023/05/20 08:18:23;;;;;;;9.13;4.25;;;;;;;15.38;68.58;102116.13;5054720;28;20414;-66
2023/05/20 08:20:50;;;;;;;10.15;4.05;;;;;;;15.47;68.78;102120.84;5052175;28;20473;-65
2023/05/20 08:23:18;;;;;;;8.90;3.80;;;;;;;15.52;67.47;102122.78;5062926;28;20051;-66
2023/05/20 08:25:47;;;;;;;9.18;4.00;;;;;;;15.52;67.11;102131.03;5055260;28;21609;-65
2023/05/20 08:28:16;;;;;;;9.50;4.22;;;;;;;15.54;67.41;102126.09;5041654;28;20048;-66
2023/05/20 08:30:46;;;;;;;8.15;4.10;;;;;;;15.64;67.36;102115.13;5039197;28;20107;-67
2023/05/20 08:33:15;;;;;;;7.53;3.50;;;;;;;15.71;67.00;102121.22;5018579;28;20474;-66
2023/05/20 08:35:43;;;;;;;11.93;3.72;;;;;;;15.79;66.03;102108.06;5022961;28;20505;-66
2023/05/20 08:38:11;;;;;;;9.30;3.85;;;;;;;15.70;66.32;102114.06;5052148;28;20111;-65
2023/05/20 08:40:41;;;;;;;8.18;4.00;;;;;;;15.67;66.00;102103.59;5054955;28;20463;-66
2023/05/20 08:43:09;;;;;;;10.05;3.70;;;;;;;15.67;66.05;102117.31;5047679;28;20045;-66
2023/05/20 08:45:38;;;;;;;8.90;3.88;;;;;;;15.75;67.29;102094.00;5034242;28;20053;-67
2023/05/20 08:48:11;;;;;;;9.55;3.72;;;;;;;15.86;66.33;102103.13;5031612;28;20052;-65
2023/05/20 08:50:39;;;;;;;7.95;3.85;;;;;;;15.93;64.89;102096.25;5027398;28;20142;-66
2023/05/20 08:53:07;;;;;;;9.80;4.03;;;;;;;15.98;64.08;102099.00;5044834;28;20480;-66
2023/05/20 08:55:45;;;;;;;5.75;3.55;;;;;;;16.11;64.73;102103.13;5054022;28;20493;-66
2023/05/20 08:58:15;;;;;;;8.82;3.85;;;;;;;16.15;62.00;102098.75;5044358;28;20038;-66
2023/05/20 09:00:42;;;;;;;8.95;3.88;;;;;;;16.11;61.79;102100.38;5040825;28;20068;-66
2023/05/20 09:03:11;;;;;;;11.27;3.60;;;;;;;16.08;61.43;102097.38;5054363;28;20400;-65
2023/05/20 09:05:39;;;;;;;5.20;3.30;;;;;;;16.06;61.77;102092.13;5053054;28;20131;-65
2023/05/20 09:08:08;;;;;;;6.32;3.50;;;;;;;16.17;60.79;102103.97;5053913;28;20131;-66
2023/05/20 09:10:37;;;;;;;13.80;4.70;;;;;;;16.14;60.16;102090.78;5036881;28;20048;-65
2023/05/20 09:13:06;;;;;;;4.35;3.05;;;;;;;16.14;61.04;102083.34;5029768;28;20049;-66
2023/05/20 09:15:34;;;;;;;9.70;2.95;;;;;;;16.25;61.36;102075.09;5053593;28;20084;-65
2023/05/20 09:18:04;;;;;;;9.70;4.10;;;;;;;16.23;60.55;102094.63;5053686;28;20124;-66
2023/05/20 09:20:36;;;;;;;8.40;3.75;;;;;;;16.24;60.66;102084.47;5024100;28;20405;-65
2023/05/20 09:23:06;;;;;;;6.95;3.40;;;;;;;16.32;61.54;102092.16;5033767;28;20045;-66
2023/05/20 09:25:34;;;;;;;6.55;3.22;;;;;;;16.36;61.02;102079.50;5069088;28;20059;-65
2023/05/20 09:28:05;;;;;;;9.38;3.40;;;;;;;16.32;61.66;102084.72;5054533;28;20072;-66
2023/05/20 09:30:33;;;;;;;8.10;3.50;;;;;;;16.43;61.79;102081.94;5039122;28;20123;-66
2023/05/20 09:33:03;;;;;;;11.32;3.60;;;;;;;16.44;61.15;102078.94;5056124;28;20049;-66
2023/05/20 09:35:37;;;;;;;8.65;3.65;;;;;;;16.50;61.33;102072.34;5039735;28;20072;-65
2023/05/20 09:38:09;;;;;;;11.82;3.67;;;;;;;16.52;60.94;102072.03;5054227;28;20057;-66
2023/05/20 09:40:37;;;;;;;6.50;3.42;;;;;;;16.59;61.10;102070.66;5053875;28;20119;-66
2023/05/20 09:43:10;;;;;;;11.05;3.83;;;;;;;16.63;60.91;102064.59;5063197;28;20048;-66
2023/05/20 09:45:38;;;;;;;9.60;3.22;;;;;;;16.74;61.41;102066.22;5057500;28;20128;-66
2023/05/20 09:48:07;;;;;;;14.15;3.38;;;;;;;16.80;61.58;102068.72;5056990;28;20076;-65
2023/05/20 09:50:36;;;;;;;7.60;3.28;;;;;;;16.82;58.79;102073.94;5023063;28;20081;-66
2023/05/20 09:53:06;;;;;;;6.35;3.50;;;;;;;16.79;57.97;102069.81;5041055;28;20056;-65
2023/05/20 09:55:34;;;;;;;9.27;3.95;;;;;;;16.76;57.67;102072.25;5041568;28;20053;-65
2023/05/20 09:58:02;;;;;;;6.63;3.03;;;;;;;16.71;58.96;102067.59;5026134;28;20049;-66
2023/05/20 10:00:30;;;;;;;6.63;3.17;;;;;;;16.71;59.03;102073.09;5042035;28;20489;-66
2023/05/20 10:03:01;;;;;;;4.75;3.03;;;;;;;16.75;58.30;102065.13;5051563;28;20434;-66
2023/05/20 10:05:38;;;;;;;6.70;3.10;;;;;;;16.87;59.40;102081.38;5057651;28;20052;-66
2023/05/20 10:08:09;;;;;;;10.32;3.50;;;;;;;16.91;58.20;102060.41;5053147;28;20061;-67
2023/05/20 10:11:02;;;;;;;7.10;3.30;;;;;;;16.88;58.47;102059.03;5055049;28;20558;-66
2023/05/20 10:13:40;;;;;;;9.13;3.50;;;;;;;16.93;58.92;102059.06;5052541;28;20069;-65
2023/05/20 10:16:46;;;;;;;6.90;3.10;;;;;;;17.09;57.99;102050.72;5066776;28;20041;-64
2023/05/20 10:19:13;;;;;;;;;;;;;;;16.97;58.04;102049.09;5061366;28;20152;-65
2023/05/20 10:21:41;;;;;;;9.25;3.65;;;;;;;16.92;57.94;102040.88;5066680;28;19928;-65
2023/05/20 10:24:10;;;;;;;7.43;3.50;;;;;;;16.93;58.14;102038.94;5062171;28;20045;-63
2023/05/20 10:26:42;;;;;;;5.47;3.33;;;;;;;16.91;59.87;102033.72;5068186;28;20049;-63
2023/05/20 10:29:19;;;;;;;5.90;3.13;;;;;;;16.98;59.51;102045.25;5050023;28;20052;-64
2023/05/20 10:31:51;;;;;;;8.07;3.40;;;;;;;17.07;58.97;102034.47;5058232;28;20052;-66
2023/05/20 10:34:23;;;;;;;7.40;3.50;;;;;;;17.12;58.67;102033.63;5016313;28;20049;-65
2023/05/20 10:36:53;;;;;;;9.02;3.58;;;;;;;17.07;58.26;102022.63;5054233;28;20052;-66
2023/05/20 10:39:34;;;;;;;10.07;3.70;;;;;;;17.18;59.33;102032.50;5053808;28;20049;-66
2023/05/20 10:42:08;;;;;;;7.82;3.75;;;;;;;17.14;58.67;102025.91;5056106;28;20049;-65
2023/05/20 10:44:43;;;;;;;8.52;3.75;;;;;;;17.16;59.42;102015.44;5053098;28;20481;-65
2023/05/20 10:47:12;;;;;;;6.75;3.15;;;;;;;17.24;58.87;102020.34;5053216;28;20053;-66
2023/05/20 10:49:46;;;;;;;7.57;3.40;;;;;;;17.25;58.93;102022.00;5051845;28;20049;-66
2023/05/20 10:52:15;;;;;;;8.23;3.63;;;;;;;17.29;58.63;102023.06;5053753;28;20098;-66
2023/05/20 10:54:47;;;;;;;8.32;3.85;;;;;;;17.39;58.16;102016.66;5050258;28;20037;-66
2023/05/20 10:57:18;;;;;;;9.23;3.50;;;;;;;17.43;57.32;102012.25;5052507;28;20466;-66
2023/05/20 10:59:46;;;;;;;6.35;3.45;;;;;;;17.42;57.62;102022.44;5053396;28;20052;-66
2023/05/20 11:02:15;;;;;;;6.72;3.60;;;;;;;17.45;57.66;102019.13;5052387;28;20048;-66
2023/05/20 11:04:44;;;;;;;7.32;3.88;;;;;;;17.53;57.73;102005.84;5022897;28;20037;-67
2023/05/20 11:07:12;;;;;;;6.22;3.20;;;;;;;17.67;57.97;102012.34;5056644;28;20053;-66
2023/05/20 11:09:49;;;;;;;10.07;3.10;;;;;;;17.67;57.09;101995.81;5055896;28;20057;-65
2023/05/20 11:12:18;;;;;;;7.20;3.40;;;;;;;17.68;57.16;102003.00;5068776;28;20451;-66
2023/05/20 11:14:48;;;;;;;9.32;3.40;;;;;;;17.73;57.26;102000.19;5053617;28;20143;-67
2023/05/20 11:17:17;;;;;;;6.80;2.97;;;;;;;17.81;57.21;101991.31;5053984;28;20052;-66
2023/05/20 11:19:46;;;;;;;5.88;3.17;;;;;;;17.90;55.58;102001.75;5054895;28;20079;-66
2023/05/20 11:22:14;;;;;;;8.95;3.30;;;;;;;17.67;55.50;101999.38;5030580;28;20050;-66
2023/05/20 11:24:42;;;;;;;6.22;2.90;;;;;;;17.64;56.42;101991.72;5039004;28;20072;-64
2023/05/20 11:27:10;;;;;;;8.75;3.55;;;;;;;17.78;55.70;101996.56;5035185;28;20049;-65
2023/05/20 11:29:39;;;;;;;8.88;3.15;;;;;;;17.82;55.17;101995.75;5036634;28;20077;-65
2023/05/20 11:32:07;;;;;;;8.35;3.17;;;;;;;17.83;54.98;102000.13;5074657;28;20068;-66